Time;durP1;ratioP1;P1;durP2;ratioP2;P2;SDS_P1;SDS_P2;PMS_P1;PMS_P2;Temp;Humidity;BMP_temperature;BMP_pressure;BME280_temperature;BME280_humidity;BME280_pressure;Samples;Min_cycle;Max_cycle;Signal;HPM_P1;HPM_P2
2022/06/24 00:01:27;;;;;;;1999.90;999.90;;;;;;;;;;4916892;29;20247;-66
2022/06/24 00:04:13;;;;;;;1999.90;999.90;;;;;;;;;;4917641;29;20299;-67
2022/06/24 00:06:59;;;;;;;1999.90;999.90;;;;;;;;;;4916933;29;20228;-66
2022/06/24 00:09:44;;;;;;;1999.90;999.90;;;;;;;;;;4923991;29;20573;-66
2022/06/24 00:12:30;;;;;;;1999.90;999.90;;;;;;;;;;4925574;29;20204;-66
2022/06/24 00:15:16;;;;;;;1999.90;999.90;;;;;;;;;;4933257;29;20212;-67
2022/06/24 00:18:13;;;;;;;1999.90;999.90;;;;;;;;;;4922326;29;20600;-64
2022/06/24 00:20:58;;;;;;;1999.90;999.90;;;;;;;;;;4925590;29;20332;-67
2022/06/24 00:23:44;;;;;;;1999.90;999.90;;;;;;;;;;4916968;29;20294;-66
2022/06/24 00:26:37;;;;;;;1999.90;999.90;;;;;;;;;;4920732;29;20308;-66
2022/06/24 00:29:22;;;;;;;1999.90;999.90;;;;;;;;;;4916808;29;20621;-66
2022/06/24 00:32:07;;;;;;;1999.90;999.90;;;;;;;;;;4915455;29;20395;-67
2022/06/24 00:35:01;;;;;;;1999.90;999.90;;;;;;;;;;4927186;29;20212;-65
2022/06/24 00:37:47;;;;;;;1999.90;999.90;;;;;;;;;;4924653;29;20207;-66
2022/06/24 00:40:35;;;;;;;1999.90;999.90;;;;;;;;;;4920358;29;20767;-66
2022/06/24 00:43:23;;;;;;;1999.90;999.90;;;;;;;;;;4928167;29;20219;-66
2022/06/24 00:46:11;;;;;;;1999.90;999.90;;;;;;;;;;4916651;29;20228;-66
2022/06/24 00:48:57;;;;;;;1999.90;999.90;;;;;;;;;;4916297;29;20496;-67
2022/06/24 00:51:43;;;;;;;1999.90;999.90;;;;;;;;;;4916851;29;20601;-66
2022/06/24 00:54:28;;;;;;;1999.90;999.90;;;;;;;;;;4928094;29;20218;-66
2022/06/24 00:57:14;;;;;;;1999.90;999.90;;;;;;;;;;4915577;29;20569;-66
2022/06/24 00:59:59;;;;;;;1999.90;999.90;;;;;;;;;;4933787;29;20673;-65
2022/06/24 01:02:47;;;;;;;1999.90;999.90;;;;;;;;;;4934404;29;20213;-65
2022/06/24 01:05:33;;;;;;;1999.90;999.90;;;;;;;;;;4921615;29;20451;-66
2022/06/24 01:08:18;;;;;;;1999.90;999.90;;;;;;;;;;4923090;29;20216;-64
2022/06/24 01:11:03;;;;;;;1999.90;999.90;;;;;;;;;;4916159;29;20310;-66
2022/06/24 01:13:49;;;;;;;1999.90;999.90;;;;;;;;;;4918383;29;20728;-63
2022/06/24 01:16:34;;;;;;;1999.90;999.90;;;;;;;;;;4923462;29;20795;-65
2022/06/24 01:19:19;;;;;;;1999.90;999.90;;;;;;;;;;4916961;29;20208;-65
2022/06/24 01:22:06;;;;;;;1999.90;999.90;;;;;;;;;;4916627;29;20203;-66
2022/06/24 01:24:51;;;;;;;1999.90;999.90;;;;;;;;;;4916669;29;20213;-64
2022/06/24 01:27:36;;;;;;;1999.90;999.90;;;;;;;;;;4916522;29;20275;-64
2022/06/24 01:30:21;;;;;;;1999.90;999.90;;;;;;;;;;4916714;29;20630;-64
2022/06/24 01:33:06;;;;;;;1999.90;999.90;;;;;;;;;;4916546;29;20645;-65
2022/06/24 01:35:52;;;;;;;1999.90;999.90;;;;;;;;;;4916776;29;20780;-64
2022/06/24 01:38:38;;;;;;;1999.90;999.90;;;;;;;;;;4916509;29;20401;-65
2022/06/24 01:41:23;;;;;;;1999.90;999.90;;;;;;;;;;4916522;29;20582;-65
2022/06/24 01:44:08;;;;;;;1999.90;999.90;;;;;;;;;;4916292;29;20343;-65
2022/06/24 01:46:53;;;;;;;1999.90;999.90;;;;;;;;;;4916477;29;20237;-65
2022/06/24 01:49:38;;;;;;;1999.90;999.90;;;;;;;;;;4916187;29;20212;-65
2022/06/24 01:52:23;;;;;;;1999.90;999.90;;;;;;;;;;4916207;29;20829;-63
2022/06/24 01:55:09;;;;;;;1999.90;999.90;;;;;;;;;;4916350;29;20750;-65
2022/06/24 01:57:54;;;;;;;1999.90;999.90;;;;;;;;;;4915875;29;20208;-65
2022/06/24 02:00:39;;;;;;;1999.90;999.90;;;;;;;;;;4916222;29;20233;-65
2022/06/24 02:03:24;;;;;;;1999.90;999.90;;;;;;;;;;4916452;29;20196;-66
2022/06/24 02:06:12;;;;;;;1999.90;999.90;;;;;;;;;;4915992;29;20358;-65
2022/06/24 02:08:57;;;;;;;1999.90;999.90;;;;;;;;;;4915940;29;20710;-63
2022/06/24 02:14:46;;;;;;;1999.90;999.90;;;;;;;;;;4916168;29;20239;-64
2022/06/24 02:17:32;;;;;;;1999.90;999.90;;;;;;;;;;4917738;29;20215;-64
2022/06/24 02:20:17;;;;;;;1999.90;999.90;;;;;;;;;;4923022;29;20898;-64
2022/06/24 02:23:02;;;;;;;1999.90;999.90;;;;;;;;;;4926917;29;20283;-65
2022/06/24 02:25:47;;;;;;;1999.90;999.90;;;;;;;;;;4930370;29;20763;-65
2022/06/24 02:28:34;;;;;;;1999.90;999.90;;;;;;;;;;4925698;29;20682;-65
2022/06/24 02:31:19;;;;;;;1999.90;999.90;;;;;;;;;;4934907;29;20307;-65
2022/06/24 02:34:04;;;;;;;1999.90;999.90;;;;;;;;;;4934878;29;20211;-65
2022/06/24 02:36:49;;;;;;;1999.90;999.90;;;;;;;;;;4930168;29;20211;-65
2022/06/24 02:39:34;;;;;;;1999.90;999.90;;;;;;;;;;4926213;29;20811;-65
2022/06/24 02:42:19;;;;;;;1999.90;999.90;;;;;;;;;;4934949;29;20206;-64
2022/06/24 02:45:06;;;;;;;1999.90;999.90;;;;;;;;;;4934734;29;20258;-65
2022/06/24 02:47:51;;;;;;;1999.90;999.90;;;;;;;;;;4934128;29;20233;-66
2022/06/24 02:50:39;;;;;;;1999.90;999.90;;;;;;;;;;4925135;29;20304;-64
2022/06/24 02:53:25;;;;;;;1999.90;999.90;;;;;;;;;;4926693;29;20302;-64
2022/06/24 02:56:12;;;;;;;1999.90;999.90;;;;;;;;;;4934848;29;20728;-64
2022/06/24 02:58:58;;;;;;;1999.90;999.90;;;;;;;;;;4930894;29;20211;-64
2022/06/24 03:01:44;;;;;;;1999.90;999.90;;;;;;;;;;4916020;29;20285;-65
2022/06/24 03:04:29;;;;;;;1999.90;999.90;;;;;;;;;;4915599;29;20215;-65
2022/06/24 03:07:14;;;;;;;1999.90;999.90;;;;;;;;;;4914981;29;20342;-65
2022/06/24 03:09:58;;;;;;;1999.90;999.90;;;;;;;;;;4926142;29;20250;-65
2022/06/24 03:12:44;;;;;;;1999.90;999.90;;;;;;;;;;4934371;29;20761;-64
2022/06/24 03:15:29;;;;;;;1999.90;999.90;;;;;;;;;;4925465;29;20586;-64
2022/06/24 03:18:16;;;;;;;1999.90;999.90;;;;;;;;;;4931197;29;20610;-66
2022/06/24 03:21:01;;;;;;;1999.90;999.90;;;;;;;;;;4934360;29;20249;-65
2022/06/24 03:23:46;;;;;;;1999.90;999.90;;;;;;;;;;4934664;29;20211;-64
2022/06/24 03:26:31;;;;;;;1999.90;999.90;;;;;;;;;;4933495;29;20811;-65
2022/06/24 03:29:17;;;;;;;1999.90;999.90;;;;;;;;;;4934179;29;20213;-65
2022/06/24 03:32:02;;;;;;;1999.90;999.90;;;;;;;;;;4934617;29;20209;-64
2022/06/24 03:34:50;;;;;;;1999.90;999.90;;;;;;;;;;4930683;29;20208;-65
2022/06/24 03:37:35;;;;;;;1999.90;999.90;;;;;;;;;;4929963;29;20297;-66
2022/06/24 03:40:21;;;;;;;1999.90;999.90;;;;;;;;;;4937811;29;20232;-66
2022/06/24 03:43:05;;;;;;;1999.90;999.90;;;;;;;;;;4937631;29;20575;-66
2022/06/24 03:45:50;;;;;;;1999.90;999.90;;;;;;;;;;4937390;29;20205;-67
2022/06/24 03:48:35;;;;;;;1999.90;999.90;;;;;;;;;;4929979;29;20246;-66
2022/06/24 03:51:21;;;;;;;1999.90;999.90;;;;;;;;;;4921479;29;20245;-66
2022/06/24 03:54:06;;;;;;;1999.90;999.90;;;;;;;;;;4927759;29;20207;-64
2022/06/24 03:56:51;;;;;;;1999.90;999.90;;;;;;;;;;4929899;29;20222;-65
2022/06/24 03:59:36;;;;;;;1999.90;999.90;;;;;;;;;;4929733;29;20294;-65
2022/06/24 04:02:21;;;;;;;1999.90;999.90;;;;;;;;;;4918390;29;20207;-64
2022/06/24 04:05:07;;;;;;;1999.90;999.90;;;;;;;;;;4918238;29;20745;-64
2022/06/24 04:07:54;;;;;;;1999.90;999.90;;;;;;;;;;4917897;29;20227;-65
2022/06/24 04:10:39;;;;;;;1999.90;999.90;;;;;;;;;;4935127;29;20232;-65
2022/06/24 04:13:24;;;;;;;1999.90;999.90;;;;;;;;;;4914079;29;20412;-64
2022/06/24 04:16:09;;;;;;;1999.90;999.90;;;;;;;;;;4917349;29;20214;-64
2022/06/24 04:18:55;;;;;;;1999.90;999.90;;;;;;;;;;4929387;29;20609;-62
2022/06/24 04:21:39;;;;;;;1999.90;999.90;;;;;;;;;;4913475;29;20298;-64
2022/06/24 04:24:26;;;;;;;1999.90;999.90;;;;;;;;;;4918066;29;20703;-64
2022/06/24 04:27:10;;;;;;;1999.90;999.90;;;;;;;;;;4928593;29;20742;-64
2022/06/24 04:29:58;;;;;;;1999.90;999.90;;;;;;;;;;4928627;29;20792;-65
2022/06/24 04:32:43;;;;;;;1999.90;999.90;;;;;;;;;;4922848;29;20217;-64
2022/06/24 04:35:28;;;;;;;1999.90;999.90;;;;;;;;;;4936732;29;20216;-65
2022/06/24 04:38:13;;;;;;;1999.90;999.90;;;;;;;;;;4936829;29;20565;-65
2022/06/24 04:40:59;;;;;;;1999.90;999.90;;;;;;;;;;4920008;29;20226;-66
2022/06/24 04:43:44;;;;;;;1999.90;999.90;;;;;;;;;;4898217;29;20214;-68
2022/06/24 04:46:29;;;;;;;1999.90;999.90;;;;;;;;;;4898837;29;20263;-65
2022/06/24 04:49:14;;;;;;;1999.90;999.90;;;;;;;;;;4898379;29;20581;-65
2022/06/24 04:51:58;;;;;;;1999.90;999.90;;;;;;;;;;4898229;29;20248;-66
2022/06/24 04:54:44;;;;;;;1999.90;999.90;;;;;;;;;;4917764;29;20294;-66
2022/06/24 04:57:30;;;;;;;1999.90;999.90;;;;;;;;;;4927619;29;20208;-66
2022/06/24 05:00:16;;;;;;;1999.90;999.90;;;;;;;;;;4930455;29;20651;-66
2022/06/24 05:03:01;;;;;;;1999.90;999.90;;;;;;;;;;4920078;29;20207;-66
2022/06/24 05:05:46;;;;;;;1999.90;999.90;;;;;;;;;;4917300;29;20713;-68
2022/06/24 05:08:30;;;;;;;1999.90;999.90;;;;;;;;;;4917858;29;20227;-66
2022/06/24 05:11:15;;;;;;;1999.90;999.90;;;;;;;;;;4928186;29;20241;-63
2022/06/24 05:14:02;;;;;;;1999.90;999.90;;;;;;;;;;4936149;29;20217;-65
2022/06/24 05:16:47;;;;;;;1999.90;999.90;;;;;;;;;;4936156;29;20213;-65
2022/06/24 05:19:32;;;;;;;1999.90;999.90;;;;;;;;;;4935574;29;20691;-64
2022/06/24 05:22:17;;;;;;;1999.90;999.90;;;;;;;;;;4935892;29;20765;-65
2022/06/24 05:25:02;;;;;;;1999.90;999.90;;;;;;;;;;4923211;29;20218;-65
2022/06/24 05:27:47;;;;;;;1999.90;999.90;;;;;;;;;;4897813;29;20311;-65
2022/06/24 05:30:34;;;;;;;1999.90;999.90;;;;;;;;;;4899263;29;20421;-65
2022/06/24 05:33:18;;;;;;;1999.90;999.90;;;;;;;;;;4925325;29;20515;-64
2022/06/24 05:36:04;;;;;;;1999.90;999.90;;;;;;;;;;4935645;29;20211;-66
2022/06/24 05:38:49;;;;;;;1999.90;999.90;;;;;;;;;;4929726;29;20318;-64
2022/06/24 05:41:34;;;;;;;1999.90;999.90;;;;;;;;;;4928003;29;20235;-65
2022/06/24 05:44:19;;;;;;;1999.90;999.90;;;;;;;;;;4935745;29;20698;-64
2022/06/24 05:47:06;;;;;;;1999.90;999.90;;;;;;;;;;4934463;29;20411;-65
2022/06/24 05:49:51;;;;;;;1999.90;999.90;;;;;;;;;;4926572;29;20216;-63
2022/06/24 05:55:39;;;;;;;1999.90;999.90;;;;;;;;;;4913856;29;20202;-62
2022/06/24 05:58:23;;;;;;;1999.90;999.90;;;;;;;;;;4921663;29;20577;-65
2022/06/24 06:01:10;;;;;;;1999.90;999.90;;;;;;;;;;4921955;29;20783;-64
2022/06/24 06:03:57;;;;;;;1999.90;999.90;;;;;;;;;;4916133;29;20216;-66
2022/06/24 06:06:42;;;;;;;1999.90;999.90;;;;;;;;;;4919136;29;20211;-65
2022/06/24 06:09:27;;;;;;;1999.90;999.90;;;;;;;;;;4926515;29;20203;-64
2022/06/24 06:12:11;;;;;;;1999.90;999.90;;;;;;;;;;4927498;29;20207;-65
2022/06/24 06:14:56;;;;;;;1999.90;999.90;;;;;;;;;;4923469;29;20216;-65
2022/06/24 06:17:41;;;;;;;1999.90;999.90;;;;;;;;;;4896454;29;20345;-64
2022/06/24 06:20:28;;;;;;;1999.90;999.90;;;;;;;;;;4916864;29;20243;-65
2022/06/24 06:23:13;;;;;;;1999.90;999.90;;;;;;;;;;4918610;29;20698;-64
2022/06/24 06:25:58;;;;;;;1999.90;999.90;;;;;;;;;;4921855;29;20214;-63
2022/06/24 06:28:44;;;;;;;1999.90;999.90;;;;;;;;;;4924533;29;20251;-63
2022/06/24 06:31:29;;;;;;;1999.90;999.90;;;;;;;;;;4922842;29;20334;-65
2022/06/24 06:34:14;;;;;;;1999.90;999.90;;;;;;;;;;4931105;29;20418;-65
2022/06/24 06:37:00;;;;;;;1999.90;999.90;;;;;;;;;;4920739;29;20414;-65
2022/06/24 06:39:45;;;;;;;1999.90;999.90;;;;;;;;;;4915408;29;20296;-65
2022/06/24 06:42:30;;;;;;;1999.90;999.90;;;;;;;;;;4915149;29;20709;-65
2022/06/24 06:45:15;;;;;;;1999.90;999.90;;;;;;;;;;4915808;29;20339;-65
2022/06/24 06:48:00;;;;;;;1999.90;999.90;;;;;;;;;;4915429;29;20220;-63
2022/06/24 06:50:45;;;;;;;1999.90;999.90;;;;;;;;;;4916060;29;20730;-66
2022/06/24 06:53:31;;;;;;;1999.90;999.90;;;;;;;;;;4915649;29;20279;-65
2022/06/24 06:56:16;;;;;;;1999.90;999.90;;;;;;;;;;4912038;29;20336;-65
2022/06/24 06:59:01;;;;;;;1999.90;999.90;;;;;;;;;;4912379;29;20244;-65
2022/06/24 07:01:46;;;;;;;1999.90;999.90;;;;;;;;;;4916585;29;20231;-65
2022/06/24 07:04:31;;;;;;;1999.90;999.90;;;;;;;;;;4913221;29;20211;-65
2022/06/24 07:07:16;;;;;;;1999.90;999.90;;;;;;;;;;4915106;29;20216;-66
2022/06/24 07:10:02;;;;;;;1999.90;999.90;;;;;;;;;;4917446;29;20309;-66
2022/06/24 07:12:47;;;;;;;1999.90;999.90;;;;;;;;;;4922605;29;20339;-65
2022/06/24 07:15:33;;;;;;;1999.90;999.90;;;;;;;;;;4918649;29;20584;-65
2022/06/24 07:18:17;;;;;;;1999.90;999.90;;;;;;;;;;4916160;29;20337;-64
2022/06/24 07:21:02;;;;;;;1999.90;999.90;;;;;;;;;;4917903;29;20770;-67
2022/06/24 07:23:47;;;;;;;1999.90;999.90;;;;;;;;;;4918179;29;20293;-66
2022/06/24 07:26:33;;;;;;;1999.90;999.90;;;;;;;;;;4918297;29;21557;-67
2022/06/24 07:29:18;;;;;;;1999.90;999.90;;;;;;;;;;4919124;29;20231;-64
2022/06/24 07:32:04;;;;;;;1999.90;999.90;;;;;;;;;;4926092;29;20679;-66
2022/06/24 07:34:49;;;;;;;1999.90;999.90;;;;;;;;;;4936828;29;20267;-65
2022/06/24 07:37:34;;;;;;;1999.90;999.90;;;;;;;;;;4920039;29;20222;-63
2022/06/24 07:40:19;;;;;;;1999.90;999.90;;;;;;;;;;4918792;29;20232;-67
2022/06/24 07:43:05;;;;;;;1999.90;999.90;;;;;;;;;;4918700;29;20218;-67
2022/06/24 07:45:51;;;;;;;1999.90;999.90;;;;;;;;;;4918654;29;20208;-67
2022/06/24 07:48:37;;;;;;;1999.90;999.90;;;;;;;;;;4918081;29;20235;-68
2022/06/24 07:51:22;;;;;;;1999.90;999.90;;;;;;;;;;4917209;29;20350;-68
2022/06/24 07:54:08;;;;;;;1999.90;999.90;;;;;;;;;;4926797;29;20204;-66
2022/06/24 07:56:58;;;;;;;1999.90;999.90;;;;;;;;;;4929377;29;20573;-66
2022/06/24 07:59:46;;;;;;;1999.90;999.90;;;;;;;;;;4900090;29;20250;-66
2022/06/24 08:02:31;;;;;;;1999.90;999.90;;;;;;;;;;4931797;29;20212;-66
2022/06/24 08:05:16;;;;;;;1999.90;999.90;;;;;;;;;;4932668;29;20221;-66
2022/06/24 08:08:01;;;;;;;1999.90;999.90;;;;;;;;;;4916414;29;20576;-66
2022/06/24 08:10:46;;;;;;;1999.90;999.90;;;;;;;;;;4915815;29;20248;-67
2022/06/24 08:13:32;;;;;;;1999.90;999.90;;;;;;;;;;4914954;29;20207;-68
2022/06/24 08:16:18;;;;;;;1999.90;999.90;;;;;;;;;;4915490;29;20202;-67
2022/06/24 08:19:04;;;;;;;1999.90;999.90;;;;;;;;;;4914571;29;20234;-69
2022/06/24 08:21:49;;;;;;;1999.90;999.90;;;;;;;;;;4915772;29;20309;-65
2022/06/24 08:24:34;;;;;;;1999.90;999.90;;;;;;;;;;4915498;29;20220;-66
2022/06/24 08:27:19;;;;;;;1999.90;999.90;;;;;;;;;;4915553;29;20216;-65
2022/06/24 08:30:05;;;;;;;1999.90;999.90;;;;;;;;;;4915565;29;20282;-65
2022/06/24 08:32:51;;;;;;;1999.90;999.90;;;;;;;;;;4912540;29;20213;-66
2022/06/24 08:35:36;;;;;;;1999.90;999.90;;;;;;;;;;4917715;29;20626;-65
2022/06/24 08:38:21;;;;;;;1999.90;999.90;;;;;;;;;;4914783;29;20741;-66
2022/06/24 08:41:06;;;;;;;1999.90;999.90;;;;;;;;;;4914881;29;20243;-66
2022/06/24 08:43:51;;;;;;;1999.90;999.90;;;;;;;;;;4919190;29;20217;-66
2022/06/24 08:46:39;;;;;;;1999.90;999.90;;;;;;;;;;4917641;29;20213;-64
2022/06/24 08:49:26;;;;;;;1999.90;999.90;;;;;;;;;;4917310;29;20264;-67
2022/06/24 08:52:13;;;;;;;1999.90;999.90;;;;;;;;;;4928389;29;20218;-65
2022/06/24 08:55:00;;;;;;;1999.90;999.90;;;;;;;;;;4926436;29;20443;-65
2022/06/24 08:57:45;;;;;;;1999.90;999.90;;;;;;;;;;4923511;29;20215;-67
2022/06/24 09:00:30;;;;;;;1999.90;999.90;;;;;;;;;;4917441;29;20281;-65
2022/06/24 09:03:15;;;;;;;1999.90;999.90;;;;;;;;;;4924988;29;20218;-65
2022/06/24 09:06:10;;;;;;;1999.90;999.90;;;;;;;;;;4924211;29;20214;-64
2022/06/24 09:08:57;;;;;;;1999.90;999.90;;;;;;;;;;4897709;29;20234;-64
2022/06/24 09:11:43;;;;;;;1999.90;999.90;;;;;;;;;;4914388;29;20799;-67
2022/06/24 09:14:43;;;;;;;1999.90;999.90;;;;;;;;;;4916712;29;20214;-66
2022/06/24 09:17:29;;;;;;;1999.90;999.90;;;;;;;;;;4915589;29;20234;-67
2022/06/24 09:20:15;;;;;;;1999.90;999.90;;;;;;;;;;4922455;29;20334;-66
2022/06/24 09:23:05;;;;;;;1999.90;999.90;;;;;;;;;;4919476;29;20305;-67
2022/06/24 09:25:52;;;;;;;1999.90;999.90;;;;;;;;;;4912806;29;20238;-68
2022/06/24 09:28:37;;;;;;;1999.90;999.90;;;;;;;;;;4916914;29;20222;-67
2022/06/24 09:31:24;;;;;;;1999.90;999.90;;;;;;;;;;4915401;29;20241;-67
2022/06/24 09:34:10;;;;;;;1999.90;999.90;;;;;;;;;;4915038;29;20811;-67
2022/06/24 09:36:55;;;;;;;1999.90;999.90;;;;;;;;;;4924829;29;20577;-67
2022/06/24 09:39:42;;;;;;;1999.90;999.90;;;;;;;;;;4927021;29;20214;-68
2022/06/24 09:42:27;;;;;;;1999.90;999.90;;;;;;;;;;4923591;29;20699;-67
2022/06/24 09:45:12;;;;;;;1999.90;999.90;;;;;;;;;;4931982;29;20209;-67
2022/06/24 09:47:58;;;;;;;1999.90;999.90;;;;;;;;;;4935114;29;20301;-67
2022/06/24 09:50:43;;;;;;;1999.90;999.90;;;;;;;;;;4927000;29;20744;-66
2022/06/24 09:53:32;;;;;;;1999.90;999.90;;;;;;;;;;4933735;29;20278;-69
2022/06/24 09:56:18;;;;;;;1999.90;999.90;;;;;;;;;;4921870;29;20222;-66
2022/06/24 10:02:16;;;;;;;1999.90;999.90;;;;;;;;;;4865979;29;20254;-65
2022/06/24 10:05:03;;;;;;;1999.90;999.90;;;;;;;;;;4915948;29;20274;-65
2022/06/24 10:07:49;;;;;;;1999.90;999.90;;;;;;;;;;4916064;29;20331;-65
2022/06/24 10:10:34;;;;;;;1999.90;999.90;;;;;;;;;;4915937;29;20301;-65
2022/06/24 10:13:25;;;;;;;1999.90;999.90;;;;;;;;;;4922215;29;20677;-66
2022/06/24 10:16:10;;;;;;;1999.90;999.90;;;;;;;;;;4920416;29;20259;-67
2022/06/24 10:18:56;;;;;;;1999.90;999.90;;;;;;;;;;4921693;29;20676;-66
2022/06/24 10:21:41;;;;;;;1999.90;999.90;;;;;;;;;;4922601;29;20277;-66
2022/06/24 10:24:39;;;;;;;1999.90;999.90;;;;;;;;;;4923752;29;20274;-66
2022/06/24 10:27:46;;;;;;;1999.90;999.90;;;;;;;;;;4934736;29;20712;-67
2022/06/24 10:30:46;;;;;;;1999.90;999.90;;;;;;;;;;4922044;29;20463;-67
2022/06/24 10:33:32;;;;;;;1999.90;999.90;;;;;;;;;;4926689;29;20282;-66
2022/06/24 10:36:30;;;;;;;1999.90;999.90;;;;;;;;;;4934785;29;20209;-67
2022/06/24 10:39:15;;;;;;;1999.90;999.90;;;;;;;;;;4929857;29;20220;-67
2022/06/24 10:42:01;;;;;;;1999.90;999.90;;;;;;;;;;4919622;29;20203;-66
2022/06/24 10:44:52;;;;;;;1999.90;999.90;;;;;;;;;;4921034;29;20211;-67
2022/06/24 10:47:38;;;;;;;1999.90;999.90;;;;;;;;;;4919723;29;20220;-66
2022/06/24 10:50:24;;;;;;;1999.90;999.90;;;;;;;;;;4929221;29;20664;-66
2022/06/24 10:53:10;;;;;;;1999.90;999.90;;;;;;;;;;4924953;29;20223;-67
2022/06/24 10:55:55;;;;;;;1999.90;999.90;;;;;;;;;;4920231;29;20218;-67
2022/06/24 10:58:40;;;;;;;1999.90;999.90;;;;;;;;;;4932233;29;20758;-67
2022/06/24 11:01:25;;;;;;;1999.90;999.90;;;;;;;;;;4921491;29;20313;-67
2022/06/24 11:04:12;;;;;;;1999.90;999.90;;;;;;;;;;4921766;29;20224;-67
2022/06/24 11:07:09;;;;;;;1999.90;999.90;;;;;;;;;;4925176;29;20674;-67
2022/06/24 11:09:54;;;;;;;1999.90;999.90;;;;;;;;;;4928678;29;20245;-67
2022/06/24 11:12:39;;;;;;;1999.90;999.90;;;;;;;;;;4925736;29;20719;-66
2022/06/24 11:15:32;;;;;;;1999.90;999.90;;;;;;;;;;4925574;29;20205;-67
2022/06/24 11:18:18;;;;;;;1999.90;999.90;;;;;;;;;;4936339;29;20852;-66
2022/06/24 11:21:04;;;;;;;1999.90;999.90;;;;;;;;;;4917578;29;20225;-67
2022/06/24 11:23:54;;;;;;;1999.90;999.90;;;;;;;;;;4916925;29;21301;-66
2022/06/24 11:26:39;;;;;;;1999.90;999.90;;;;;;;;;;4921614;29;20301;-67
2022/06/24 11:29:24;;;;;;;1999.90;999.90;;;;;;;;;;4921210;29;20228;-68
2022/06/24 11:32:09;;;;;;;1999.90;999.90;;;;;;;;;;4921229;29;20318;-67
2022/06/24 11:34:54;;;;;;;1999.90;999.90;;;;;;;;;;4921652;29;20243;-66
2022/06/24 11:37:39;;;;;;;1999.90;999.90;;;;;;;;;;4921496;29;20205;-67
2022/06/24 11:40:26;;;;;;;1999.90;999.90;;;;;;;;;;4927935;29;20229;-66
2022/06/24 11:43:12;;;;;;;1999.90;999.90;;;;;;;;;;4935672;29;20261;-67
2022/06/24 11:46:00;;;;;;;1999.90;999.90;;;;;;;;;;4924130;29;20209;-67
2022/06/24 11:48:45;;;;;;;1999.90;999.90;;;;;;;;;;4912522;29;20220;-65
2022/06/24 11:51:30;;;;;;;1999.90;999.90;;;;;;;;;;4917809;29;20243;-68
2022/06/24 11:54:16;;;;;;;1999.90;999.90;;;;;;;;;;4916678;29;20209;-68
2022/06/24 11:57:07;;;;;;;1999.90;999.90;;;;;;;;;;4917094;29;20216;-66
2022/06/24 11:59:56;;;;;;;1999.90;999.90;;;;;;;;;;4915437;29;20241;-67
2022/06/24 12:02:41;;;;;;;1999.90;999.90;;;;;;;;;;4916244;29;20213;-68
2022/06/24 12:05:27;;;;;;;1999.90;999.90;;;;;;;;;;4919980;29;20701;-66
2022/06/24 12:08:12;;;;;;;1999.90;999.90;;;;;;;;;;4914286;29;20431;-67
2022/06/24 12:10:57;;;;;;;1999.90;999.90;;;;;;;;;;4915016;29;20321;-66
2022/06/24 12:13:55;;;;;;;1999.90;999.90;;;;;;;;;;4916532;29;20221;-67
2022/06/24 12:16:57;;;;;;;1999.90;999.90;;;;;;;;;;4913049;29;20213;-68
2022/06/24 12:19:56;;;;;;;1999.90;999.90;;;;;;;;;;4914734;29;20209;-67
2022/06/24 12:22:41;;;;;;;1999.90;999.90;;;;;;;;;;4915719;29;20210;-68
2022/06/24 12:25:26;;;;;;;1999.90;999.90;;;;;;;;;;4916116;29;20238;-69
2022/06/24 12:28:16;;;;;;;1999.90;999.90;;;;;;;;;;4915446;29;20278;-66
2022/06/24 12:31:04;;;;;;;1999.90;999.90;;;;;;;;;;4912397;29;20709;-67
2022/06/24 12:33:50;;;;;;;1999.90;999.90;;;;;;;;;;4914134;29;20219;-67
2022/06/24 12:36:41;;;;;;;1999.90;999.90;;;;;;;;;;4913880;29;20214;-67
2022/06/24 12:39:30;;;;;;;1999.90;999.90;;;;;;;;;;4916525;29;20222;-65
2022/06/24 12:42:17;;;;;;;1999.90;999.90;;;;;;;;;;4916797;29;20198;-66
2022/06/24 12:45:02;;;;;;;1999.90;999.90;;;;;;;;;;4911913;29;20693;-66
2022/06/24 12:51:01;;;;;;;1999.90;999.90;;;;;;;;;;4879827;29;20253;-66
2022/06/24 12:53:48;;;;;;;1999.90;999.90;;;;;;;;;;4913926;29;20963;-65
2022/06/24 12:56:34;;;;;;;1999.90;999.90;;;;;;;;;;4916481;29;20214;-66
2022/06/24 12:59:19;;;;;;;1999.90;999.90;;;;;;;;;;4913976;29;20241;-66
2022/06/24 13:02:09;;;;;;;1999.90;999.90;;;;;;;;;;4913284;29;20216;-67
2022/06/24 13:04:55;;;;;;;1999.90;999.90;;;;;;;;;;4914004;29;20216;-66
2022/06/24 13:07:40;;;;;;;1999.90;999.90;;;;;;;;;;4914350;29;20297;-67
2022/06/24 13:10:25;;;;;;;1999.90;999.90;;;;;;;;;;4914301;29;20253;-67
2022/06/24 13:13:11;;;;;;;1999.90;999.90;;;;;;;;;;4911727;29;20224;-67
2022/06/24 13:15:56;;;;;;;1999.90;999.90;;;;;;;;;;4910546;29;20228;-68
2022/06/24 13:18:41;;;;;;;1999.90;999.90;;;;;;;;;;4913035;29;20606;-67
2022/06/24 13:21:27;;;;;;;1999.90;999.90;;;;;;;;;;4914615;29;20428;-68
2022/06/24 13:24:12;;;;;;;1999.90;999.90;;;;;;;;;;4914437;29;20214;-69
2022/06/24 13:26:58;;;;;;;1999.90;999.90;;;;;;;;;;4911882;29;20220;-67
2022/06/24 13:29:43;;;;;;;1999.90;999.90;;;;;;;;;;4914674;29;20225;-66
2022/06/24 13:32:28;;;;;;;1999.90;999.90;;;;;;;;;;4933745;29;20263;-67
2022/06/24 13:35:13;;;;;;;1999.90;999.90;;;;;;;;;;4923037;29;20223;-67
2022/06/24 13:38:00;;;;;;;1999.90;999.90;;;;;;;;;;4897357;29;20578;-67
2022/06/24 13:40:45;;;;;;;1999.90;999.90;;;;;;;;;;4896465;29;20435;-66
2022/06/24 13:43:30;;;;;;;1999.90;999.90;;;;;;;;;;4897651;29;20205;-66
2022/06/24 13:46:15;;;;;;;1999.90;999.90;;;;;;;;;;4897678;29;20218;-67
2022/06/24 13:49:00;;;;;;;1999.90;999.90;;;;;;;;;;4897461;29;20217;-68
2022/06/24 13:51:46;;;;;;;1999.90;999.90;;;;;;;;;;4897431;29;20240;-67
2022/06/24 13:54:32;;;;;;;1999.90;999.90;;;;;;;;;;4897567;29;20213;-67
2022/06/24 13:57:17;;;;;;;1999.90;999.90;;;;;;;;;;4897887;29;20209;-67
2022/06/24 14:00:04;;;;;;;1999.90;999.90;;;;;;;;;;4897245;29;20228;-67
2022/06/24 14:02:49;;;;;;;1999.90;999.90;;;;;;;;;;4897521;29;20582;-67
2022/06/24 14:05:34;;;;;;;1999.90;999.90;;;;;;;;;;4897230;29;20807;-67
2022/06/24 14:08:19;;;;;;;1999.90;999.90;;;;;;;;;;4895944;29;20425;-67
2022/06/24 14:11:05;;;;;;;1999.90;999.90;;;;;;;;;;4897072;29;20242;-67
2022/06/24 14:13:51;;;;;;;1999.90;999.90;;;;;;;;;;4897188;29;20230;-67
2022/06/24 14:16:36;;;;;;;1999.90;999.90;;;;;;;;;;4896824;29;20217;-67
2022/06/24 14:19:20;;;;;;;1999.90;999.90;;;;;;;;;;4897212;29;20212;-66
2022/06/24 14:22:05;;;;;;;1999.90;999.90;;;;;;;;;;4897208;29;20586;-67
2022/06/24 14:24:49;;;;;;;1999.90;999.90;;;;;;;;;;4897075;29;20699;-67
2022/06/24 14:27:36;;;;;;;1999.90;999.90;;;;;;;;;;4895751;29;20446;-66
2022/06/24 14:30:21;;;;;;;1999.90;999.90;;;;;;;;;;4896719;29;20312;-67
2022/06/24 14:33:06;;;;;;;1999.90;999.90;;;;;;;;;;4896956;29;20242;-68
2022/06/24 14:35:50;;;;;;;1999.90;999.90;;;;;;;;;;4896787;29;20206;-66
2022/06/24 14:41:38;;;;;;;1999.90;999.90;;;;;;;;;;4896616;29;20651;-67
2022/06/24 14:44:24;;;;;;;1999.90;999.90;;;;;;;;;;4897077;29;20286;-67
2022/06/24 14:47:09;;;;;;;1999.90;999.90;;;;;;;;;;4896941;29;20577;-67
2022/06/24 14:49:54;;;;;;;1999.90;999.90;;;;;;;;;;4896030;29;20240;-67
2022/06/24 14:52:39;;;;;;;1999.90;999.90;;;;;;;;;;4896749;29;20210;-68
2022/06/24 14:55:25;;;;;;;1999.90;999.90;;;;;;;;;;4895633;29;20457;-68
2022/06/24 14:58:10;;;;;;;1999.90;999.90;;;;;;;;;;4922890;29;20587;-68
2022/06/24 15:00:57;;;;;;;1999.90;999.90;;;;;;;;;;4897049;29;20317;-67
2022/06/24 15:03:42;;;;;;;1999.90;999.90;;;;;;;;;;4897403;29;20210;-68
2022/06/24 15:06:27;;;;;;;1999.90;999.90;;;;;;;;;;4896402;29;20218;-68
2022/06/24 15:09:12;;;;;;;1999.90;999.90;;;;;;;;;;4899485;29;20307;-67
2022/06/24 15:11:57;;;;;;;1999.90;999.90;;;;;;;;;;4920373;29;20429;-68
2022/06/24 15:14:42;;;;;;;1999.90;999.90;;;;;;;;;;4912073;29;20254;-67
2022/06/24 15:17:28;;;;;;;1999.90;999.90;;;;;;;;;;4924842;29;20794;-68
2022/06/24 15:20:13;;;;;;;1999.90;999.90;;;;;;;;;;4918720;29;20592;-68
2022/06/24 15:22:58;;;;;;;1999.90;999.90;;;;;;;;;;4919750;29;20526;-68
2022/06/24 15:25:43;;;;;;;1999.90;999.90;;;;;;;;;;4896777;29;20216;-68
2022/06/24 15:28:28;;;;;;;1999.90;999.90;;;;;;;;;;4897206;29;20222;-67
2022/06/24 15:31:16;;;;;;;1999.90;999.90;;;;;;;;;;4912256;29;20312;-70
2022/06/24 15:34:02;;;;;;;1999.90;999.90;;;;;;;;;;4928219;29;20602;-68
2022/06/24 15:36:47;;;;;;;1999.90;999.90;;;;;;;;;;4926115;29;20213;-69
2022/06/24 15:39:32;;;;;;;1999.90;999.90;;;;;;;;;;4933969;29;20782;-68
2022/06/24 15:42:17;;;;;;;1999.90;999.90;;;;;;;;;;4919732;29;20574;-69